Time;durP1;ratioP1;P1;durP2;ratioP2;P2;SDS_P1;SDS_P2;PMS_P1;PMS_P2;Temp;Humidity;BMP_temperature;BMP_pressure;BME280_temperature;BME280_humidity;BME280_pressure;Samples;Min_cycle;Max_cycle;Signal;HPM_P1;HPM_P2
2021/11/08 00:00:32;;;;;;;8.53;3.40;;;6.10;99.90;;;6.62;100.00;100161.47;5032911;28;20275;-60
2021/11/08 00:03:05;;;;;;;7.07;3.80;;;6.10;99.90;;;6.50;100.00;100160.34;5032340;28;20186;-60
2021/11/08 00:05:39;;;;;;;8.93;3.60;;;6.00;99.90;;;6.53;100.00;100162.63;5032982;28;20208;-60
2021/11/08 00:08:08;;;;;;;7.47;3.77;;;6.00;99.90;;;6.60;100.00;100168.03;5032753;28;20182;-61
2021/11/08 00:10:38;;;;;;;7.73;3.20;;;6.00;99.90;;;6.60;100.00;100176.88;5032660;28;20212;-61
2021/11/08 00:13:09;;;;;;;6.83;2.83;;;6.00;99.90;;;6.87;100.00;100176.06;5032616;28;20281;-60
2021/11/08 00:15:47;;;;;;;5.97;3.27;;;6.10;99.90;;;6.87;100.00;100175.22;5032461;28;20284;-60
2021/11/08 00:18:25;;;;;;;8.37;3.60;;;6.10;99.90;;;6.87;100.00;100181.41;5032703;28;20206;-60
2021/11/08 00:20:54;;;;;;;7.30;4.07;;;6.20;99.90;;;6.92;100.00;100178.97;5032899;28;20224;-59
2021/11/08 00:23:24;;;;;;;9.03;4.10;;;6.20;99.90;;;6.92;100.00;100184.34;5032493;28;20296;-61
2021/11/08 00:25:52;;;;;;;7.07;2.93;;;6.30;99.90;;;7.07;100.00;100181.56;5032421;28;20244;-60
2021/11/08 00:28:21;;;;;;;9.03;3.80;;;6.30;99.90;;;7.15;100.00;100182.22;5032514;28;20259;-60
2021/11/08 00:30:53;;;;;;;5.07;3.00;;;6.40;99.90;;;7.44;100.00;100183.84;5032484;28;20285;-60
2021/11/08 00:33:22;;;;;;;8.87;5.00;;;6.50;99.90;;;7.49;100.00;100184.06;5032776;28;20221;-61
2021/11/08 00:35:54;;;;;;;8.73;4.93;;;6.60;99.90;;;7.66;100.00;100189.91;5032929;28;20198;-60
2021/11/08 00:38:24;;;;;;;7.57;4.10;;;6.60;99.90;;;7.42;100.00;100191.25;5032811;28;20249;-59
2021/11/08 00:40:54;;;;;;;8.23;3.93;;;6.70;99.90;;;7.45;100.00;100190.84;5032886;28;20780;-60
2021/11/08 00:43:23;;;;;;;8.83;3.60;;;6.70;99.90;;;7.53;100.00;100188.00;5032534;28;20204;-60
2021/11/08 00:45:53;;;;;;;8.33;4.30;;;6.70;99.90;;;7.49;100.00;100191.28;5032422;28;20296;-61
2021/11/08 00:48:25;;;;;;;8.33;4.07;;;6.70;99.90;;;7.63;100.00;100188.44;5032841;28;20690;-61
2021/11/08 00:50:54;;;;;;;10.37;3.67;;;6.70;99.90;;;7.41;100.00;100185.06;5033076;28;20281;-62
2021/11/08 00:53:23;;;;;;;8.30;3.60;;;6.70;99.90;;;7.54;100.00;100191.50;5036052;28;20285;-60
2021/11/08 00:55:52;;;;;;;10.23;3.60;;;6.70;99.90;;;7.49;100.00;100204.69;5035980;28;20285;-60
2021/11/08 00:58:24;;;;;;;6.63;3.00;;;6.70;99.90;;;7.64;100.00;100200.84;5035576;28;20324;-59
2021/11/08 01:00:54;;;;;;;9.00;3.23;;;6.80;99.90;;;7.67;100.00;100199.59;5036136;28;20615;-60
2021/11/08 01:03:22;;;;;;;10.17;3.40;;;6.80;99.90;;;7.68;100.00;100201.28;5035868;28;20191;-60
2021/11/08 01:05:51;;;;;;;10.87;3.40;;;6.90;99.90;;;7.68;100.00;100201.28;5035751;28;20244;-60
2021/11/08 01:08:19;;;;;;;11.10;3.83;;;6.90;99.90;;;7.73;100.00;100204.19;5035368;28;20602;-60
2021/11/08 01:10:47;;;;;;;8.00;3.27;;;7.00;99.90;;;7.66;100.00;100206.00;5035647;28;20293;-60
2021/11/08 01:13:15;;;;;;;7.23;3.07;;;7.00;99.90;;;7.55;100.00;100215.44;5035285;28;20208;-60
2021/11/08 01:15:44;;;;;;;6.77;3.50;;;6.90;99.90;;;7.66;100.00;100206.81;5035591;28;20293;-60
2021/11/08 01:18:13;;;;;;;8.77;3.57;;;7.00;99.90;;;7.63;100.00;100209.09;5035046;28;20565;-60
2021/11/08 01:20:45;;;;;;;8.50;3.67;;;6.90;99.90;;;7.61;100.00;100211.13;5035487;28;20229;-59
2021/11/08 01:23:15;;;;;;;10.27;3.70;;;6.90;99.90;;;7.53;100.00;100208.59;5035174;28;20221;-61
2021/11/08 01:25:45;;;;;;;11.13;4.43;;;6.90;99.90;;;7.47;100.00;100212.06;5035071;28;20550;-60
2021/11/08 01:28:13;;;;;;;12.00;5.13;;;6.80;99.90;;;7.30;100.00;100209.75;5035309;28;20202;-60
2021/11/08 01:30:42;;;;;;;10.93;5.33;;;6.80;99.90;;;7.20;100.00;100214.59;5035309;28;20658;-60
2021/11/08 01:33:16;;;;;;;12.67;4.63;;;6.70;99.90;;;7.15;100.00;100214.34;5035141;28;20285;-59
2021/11/08 01:35:57;;;;;;;10.97;4.20;;;6.70;99.90;;;7.29;100.00;100213.41;5034983;28;20196;-62
2021/11/08 01:38:26;;;;;;;7.77;4.10;;;6.70;99.90;;;7.26;100.00;100219.19;5034992;28;20209;-61
2021/11/08 01:40:56;;;;;;;9.70;4.37;;;6.60;99.90;;;7.67;100.00;100223.72;5034731;28;20640;-60
2021/11/08 01:43:24;;;;;;;6.63;4.07;;;6.80;99.90;;;7.74;100.00;100222.75;5034985;28;20238;-60
2021/11/08 01:45:52;;;;;;;13.17;4.20;;;6.90;99.90;;;7.91;100.00;100233.94;5034724;28;20209;-60
2021/11/08 01:48:21;;;;;;;7.13;3.33;;;6.90;99.90;;;7.87;100.00;100235.34;5034859;28;20677;-60
2021/11/08 01:50:50;;;;;;;5.50;3.20;;;7.00;99.90;;;7.77;100.00;100225.00;5034802;28;20620;-60
2021/11/08 01:53:19;;;;;;;11.77;4.33;;;7.00;99.90;;;7.76;100.00;100227.91;5034617;28;20290;-61
2021/11/08 01:55:47;;;;;;;9.47;3.57;;;7.00;99.90;;;7.73;100.00;100222.94;5034830;28;20287;-61
2021/11/08 01:58:15;;;;;;;6.13;3.53;;;6.90;99.90;;;7.76;100.00;100225.22;5034208;28;20265;-61
2021/11/08 02:00:43;;;;;;;7.20;3.43;;;7.00;99.90;;;7.47;100.00;100225.47;5034756;28;20198;-61
2021/11/08 02:03:12;;;;;;;9.13;3.77;;;6.90;99.90;;;7.28;100.00;100227.84;5034286;28;20271;-61
2021/11/08 02:05:40;;;;;;;10.07;3.97;;;6.80;99.90;;;7.48;100.00;100230.63;5034798;28;20621;-61
2021/11/08 02:08:09;;;;;;;9.70;3.67;;;6.80;99.90;;;7.50;100.00;100227.75;5034617;28;20221;-60
2021/11/08 02:10:38;;;;;;;8.57;3.20;;;6.80;99.90;;;7.28;100.00;100225.19;5034454;28;20216;-60
2021/11/08 02:13:07;;;;;;;9.57;3.80;;;6.70;99.90;;;7.36;100.00;100224.19;5034525;28;20245;-60
2021/11/08 02:15:39;;;;;;;8.50;3.33;;;6.70;99.90;;;7.23;100.00;100232.97;5034725;28;20544;-60
2021/11/08 02:18:10;;;;;;;7.00;3.73;;;6.70;99.90;;;7.20;100.00;100233.34;5034303;28;20210;-60
2021/11/08 02:20:41;;;;;;;11.10;4.50;;;6.60;99.90;;;7.22;100.00;100239.34;5034608;28;20189;-61
2021/11/08 02:23:10;;;;;;;9.97;4.80;;;6.60;99.90;;;7.41;100.00;100238.66;5034428;28;20196;-61
2021/11/08 02:25:39;;;;;;;11.43;4.73;;;6.70;99.90;;;7.50;100.00;100238.47;5034442;28;20290;-60
2021/11/08 02:28:12;;;;;;;12.33;5.00;;;6.70;99.90;;;7.49;100.00;100242.19;5034073;28;20688;-60
2021/11/08 02:30:42;;;;;;;11.93;5.50;;;6.70;99.90;;;7.55;100.00;100242.22;5034459;28;20248;-61
2021/11/08 02:33:16;;;;;;;9.57;4.70;;;6.80;99.90;;;7.67;100.00;100251.38;5033844;28;20193;-61
2021/11/08 02:35:45;;;;;;;12.50;4.87;;;6.80;99.90;;;7.76;100.00;100252.03;5034342;28;20301;-60
2021/11/08 02:38:19;;;;;;;10.37;4.10;;;6.90;99.90;;;7.79;100.00;100252.47;5033988;28;20246;-59
2021/11/08 02:40:47;;;;;;;8.63;4.10;;;6.90;99.90;;;7.76;100.00;100246.66;5033909;28;20321;-60
2021/11/08 02:43:20;;;;;;;10.30;3.53;;;7.00;99.90;;;7.72;100.00;100245.41;5034444;28;20761;-60
2021/11/08 02:45:53;;;;;;;8.10;4.10;;;6.80;99.90;;;7.85;100.00;100257.00;5034376;28;20710;-60
2021/11/08 02:48:21;;;;;;;11.30;4.00;;;7.00;99.90;;;7.74;100.00;100251.41;5034174;28;20642;-60
2021/11/08 02:50:56;;;;;;;6.87;3.37;;;7.00;99.90;;;7.85;100.00;100250.81;5034398;28;20208;-63
2021/11/08 02:53:26;;;;;;;9.03;2.93;;;7.00;99.90;;;7.85;100.00;100256.19;5034033;28;20289;-60
2021/11/08 02:55:56;;;;;;;10.57;3.67;;;7.10;99.90;;;7.72;100.00;100256.13;5033719;28;20688;-61
2021/11/08 02:58:27;;;;;;;8.60;2.77;;;7.00;99.90;;;7.67;100.00;100247.84;5033497;28;20586;-61
2021/11/08 03:00:56;;;;;;;5.13;2.67;;;7.00;99.90;;;7.74;100.00;100249.56;5033842;28;20281;-60
2021/11/08 03:03:33;;;;;;;9.90;3.10;;;7.00;99.90;;;7.63;100.00;100244.75;5033850;28;20289;-60
2021/11/08 03:06:09;;;;;;;8.57;3.30;;;6.90;99.90;;;7.62;100.00;100247.63;5033921;28;20592;-60
2021/11/08 03:08:37;;;;;;;13.13;3.37;;;6.90;99.90;;;7.61;100.00;100254.03;5033613;28;20270;-60
2021/11/08 03:11:05;;;;;;;11.27;3.30;;;6.80;99.90;;;7.56;100.00;100259.16;5033408;28;20208;-60
2021/11/08 03:13:39;;;;;;;12.63;4.07;;;6.90;99.90;;;7.49;100.00;100266.31;5033480;28;20183;-60
2021/11/08 03:16:17;;;;;;;9.60;3.20;;;6.80;99.90;;;7.49;100.00;100260.97;5033598;28;20285;-60
2021/11/08 03:18:45;;;;;;;11.23;4.00;;;6.80;99.90;;;7.47;100.00;100266.50;5033025;28;20305;-58
2021/11/08 03:21:17;;;;;;;7.60;3.90;;;6.70;99.90;;;7.56;100.00;100270.66;5033442;28;20237;-59
2021/11/08 03:23:49;;;;;;;8.83;3.30;;;6.80;99.90;;;7.52;100.00;100269.44;5032914;28;20280;-59
2021/11/08 03:26:29;;;;;;;10.30;3.60;;;6.80;99.90;;;7.65;100.00;100268.66;5033116;28;20618;-60
2021/11/08 03:28:58;;;;;;;13.10;3.47;;;6.80;99.90;;;7.66;100.00;100276.50;5033438;28;20240;-60
2021/11/08 03:31:29;;;;;;;9.50;4.07;;;6.80;99.90;;;7.62;100.00;100280.63;5033296;28;20212;-59
2021/11/08 03:33:59;;;;;;;10.20;3.33;;;6.90;99.90;;;7.61;100.00;100280.81;5032798;28;20195;-59
2021/11/08 03:36:28;;;;;;;9.47;3.77;;;6.90;99.90;;;7.58;100.00;100271.31;5032980;28;20687;-60
2021/11/08 03:38:57;;;;;;;13.17;3.97;;;6.90;99.90;;;7.63;100.00;100276.09;5032662;28;20325;-62
2021/11/08 03:41:25;;;;;;;15.63;4.17;;;6.80;99.90;;;7.58;100.00;100278.53;5033129;28;20313;-60
2021/11/08 03:43:53;;;;;;;8.60;3.70;;;6.70;99.90;;;7.39;100.00;100286.25;5033062;28;20233;-59
2021/11/08 03:46:21;;;;;;;12.83;4.10;;;6.80;99.90;;;7.49;100.00;100295.78;5032972;28;20288;-60
2021/11/08 03:48:49;;;;;;;10.33;3.70;;;6.80;99.90;;;7.42;100.00;100296.56;5032923;28;20388;-59
2021/11/08 03:51:17;;;;;;;9.83;4.20;;;6.80;99.90;;;7.38;100.00;100297.16;5032874;28;20336;-60
2021/11/08 03:53:47;;;;;;;10.97;4.20;;;6.70;99.90;;;7.34;100.00;100296.72;5032842;28;20297;-60
2021/11/08 03:56:15;;;;;;;9.33;4.10;;;6.70;99.90;;;7.41;100.00;100304.81;5032572;28;20201;-60
2021/11/08 03:58:43;;;;;;;11.67;4.10;;;6.70;99.90;;;7.33;100.00;100311.16;5032777;28;20230;-60
2021/11/08 04:01:11;;;;;;;9.40;4.30;;;6.70;99.90;;;7.38;100.00;100316.75;5032806;28;20223;-60
2021/11/08 04:03:40;;;;;;;10.07;4.07;;;6.70;99.90;;;7.36;100.00;100320.63;5032495;28;20292;-60
2021/11/08 04:06:08;;;;;;;13.57;3.70;;;6.70;99.90;;;7.37;100.00;100322.31;5032853;28;20309;-60
2021/11/08 04:08:37;;;;;;;13.27;4.00;;;6.70;99.90;;;7.43;100.00;100326.88;5032474;28;20680;-59
2021/11/08 04:11:07;;;;;;;9.77;4.03;;;6.70;99.90;;;7.32;100.00;100330.91;5032701;28;20292;-58
2021/11/08 04:13:39;;;;;;;8.93;4.10;;;6.70;99.90;;;7.50;100.00;100329.59;5032595;28;20744;-61
2021/11/08 04:16:11;;;;;;;10.50;5.00;;;6.80;99.90;;;7.48;100.00;100337.84;5032871;28;20603;-58
2021/11/08 04:18:45;;;;;;;7.83;4.37;;;6.80;99.90;;;7.47;100.00;100330.84;5032300;28;20217;-60
2021/11/08 04:21:14;;;;;;;12.83;4.50;;;6.80;99.90;;;7.38;100.00;100338.19;5032760;28;20181;-60
2021/11/08 04:23:43;;;;;;;12.73;4.53;;;6.70;99.90;;;7.35;100.00;100352.00;5032462;28;20550;-60
2021/11/08 04:26:18;;;;;;;9.77;4.70;;;6.60;99.90;;;7.08;100.00;100352.78;5035265;28;20205;-59
2021/11/08 04:28:52;;;;;;;14.33;4.90;;;6.60;99.90;;;7.13;100.00;100350.34;5036685;28;20242;-59
2021/11/08 04:31:22;;;;;;;10.47;5.13;;;6.50;99.90;;;7.13;100.00;100357.56;5036568;28;20190;-60
2021/11/08 04:33:52;;;;;;;10.77;4.80;;;6.50;99.90;;;7.16;100.00;100355.31;5036344;28;20208;-60
2021/11/08 04:39:22;;;;;;;16.17;6.57;;;6.60;99.90;;;7.49;100.00;100354.75;5032752;28;20222;-60
2021/11/08 04:41:57;;;;;;;9.20;6.20;;;6.60;99.90;;;7.43;100.00;100351.00;5036131;28;20197;-59
2021/11/08 04:50:11;;;;;;;11.33;4.63;;;6.80;99.90;;;7.64;100.00;100358.16;5036799;28;20210;-59
2021/11/08 04:52:56;;;;;;;11.80;4.93;;;6.80;99.90;;;7.56;100.00;100367.16;5035982;28;20638;-59
2021/11/08 04:55:31;;;;;;;7.97;4.30;;;6.80;99.90;;;7.62;100.00;100368.25;5035931;28;20217;-59
2021/11/08 05:23:04;;;;;;;10.83;4.93;;;7.00;99.90;;;7.90;100.00;100379.81;5035559;28;20206;-61
2021/11/08 05:28:30;;;;;;;11.43;5.07;;;7.00;99.90;;;7.67;100.00;100397.97;5035573;28;20232;-60
2021/11/08 05:31:00;;;;;;;14.83;4.53;;;6.90;99.90;;;7.60;100.00;100403.31;5035484;28;20233;-59
2021/11/08 05:33:28;;;;;;;13.83;4.90;;;6.80;99.90;;;7.56;100.00;100406.56;5035080;28;20641;-61
2021/11/08 05:35:56;;;;;;;11.30;5.07;;;6.80;99.90;;;7.44;100.00;100407.09;5035034;28;20687;-60
2021/11/08 05:38:25;;;;;;;11.77;5.60;;;6.80;99.90;;;7.67;100.00;100414.06;5034609;28;20206;-61
2021/11/08 05:40:53;;;;;;;8.90;4.70;;;6.80;99.90;;;7.80;100.00;100419.53;5034927;28;20681;-61
2021/11/08 05:43:21;;;;;;;12.63;4.50;;;6.80;99.90;;;7.55;100.00;100418.31;5035277;28;20201;-62
2021/11/08 05:45:49;;;;;;;14.60;5.40;;;6.80;99.90;;;7.55;100.00;100412.94;5035162;28;20209;-58
2021/11/08 05:48:19;;;;;;;10.93;4.70;;;6.80;99.90;;;7.47;100.00;100420.09;5035059;28;20300;-61
2021/11/08 05:50:47;;;;;;;12.37;4.93;;;6.80;99.90;;;7.47;100.00;100424.63;5035088;28;20198;-61
2021/11/08 05:53:15;;;;;;;11.20;5.07;;;6.70;99.90;;;7.34;100.00;100430.69;5035122;28;20208;-59
2021/11/08 05:55:51;;;;;;;13.43;5.37;;;6.70;99.90;;;7.33;100.00;100430.91;5034817;28;20355;-60
2021/11/08 05:58:40;;;;;;;14.80;5.60;;;6.60;99.90;;;7.34;100.00;100440.56;5034229;28;20319;-61
2021/11/08 06:49:03;;;;;;;14.40;6.00;;;6.40;99.90;;;7.17;100.00;100490.91;4952315;28;20212;-61
2021/11/08 06:51:31;;;;;;;13.77;5.63;;;6.40;99.90;;;7.15;100.00;100492.94;5031929;28;20304;-60
2021/11/08 06:54:02;;;;;;;13.93;7.10;;;6.40;99.90;;;7.25;100.00;100495.34;5034538;28;20190;-60
2021/11/08 06:56:35;;;;;;;10.40;5.47;;;6.50;99.90;;;7.29;100.00;100501.94;5033442;28;20236;-59
2021/11/08 06:59:04;;;;;;;13.93;5.57;;;6.50;99.90;;;7.30;100.00;100503.63;5033492;28;20186;-59
2021/11/08 07:01:34;;;;;;;12.50;5.80;;;6.60;99.90;;;7.42;100.00;100510.16;5033375;28;20219;-61
2021/11/08 07:04:02;;;;;;;11.00;5.90;;;6.60;99.90;;;7.38;100.00;100508.84;5033492;28;20213;-59
2021/11/08 07:06:30;;;;;;;16.70;5.43;;;6.60;99.90;;;7.34;100.00;100519.13;5033309;28;20622;-60
2021/11/08 07:08:58;;;;;;;10.97;5.20;;;6.60;99.90;;;7.29;100.00;100523.38;5032757;28;20300;-59
2021/11/08 07:11:27;;;;;;;13.60;5.70;;;6.60;99.90;;;7.39;100.00;100524.75;5030709;28;20264;-61
2021/11/08 07:13:55;;;;;;;9.70;5.20;;;6.70;99.90;;;7.37;100.00;100529.47;5031461;28;20300;-62
2021/11/08 07:16:23;;;;;;;16.57;5.30;;;6.70;99.90;;;7.55;100.00;100533.56;5032905;28;20298;-60
2021/11/08 07:18:51;;;;;;;13.03;5.80;;;6.80;99.90;;;7.59;100.00;100534.84;5016880;28;20211;-61
2021/11/08 07:21:19;;;;;;;16.03;5.40;;;6.90;99.90;;;7.80;100.00;100545.56;5009891;28;20298;-61
2021/11/08 07:23:47;;;;;;;9.90;6.03;;;6.90;99.90;;;7.53;100.00;100543.63;5019090;28;20300;-60
2021/11/08 07:26:16;;;;;;;47.67;13.10;;;6.90;99.90;;;7.49;100.00;100551.25;5028541;28;20401;-60
2021/11/08 07:28:45;;;;;;;17.47;6.93;;;6.90;99.90;;;7.47;100.00;100551.41;5029902;28;20296;-60
2021/11/08 07:31:13;;;;;;;12.87;6.43;;;6.90;99.90;;;7.75;100.00;100550.66;5029924;28;20297;-61
2021/11/08 07:33:41;;;;;;;16.37;5.83;;;7.00;99.90;;;7.62;100.00;100555.91;5029631;28;20265;-60
2021/11/08 07:36:10;;;;;;;11.13;6.40;;;7.00;99.90;;;7.66;100.00;100559.88;5029822;28;20221;-60
2021/11/08 07:38:38;;;;;;;17.37;6.87;;;7.00;99.90;;;7.73;100.00;100564.28;5029730;28;20581;-60
2021/11/08 07:41:10;;;;;;;153.57;31.97;;;7.10;99.90;;;7.88;100.00;100562.34;5029645;28;20221;-61
2021/11/08 07:43:39;;;;;;;14.27;7.03;;;7.20;99.90;;;8.07;100.00;100561.72;5029554;28;20630;-59
2021/11/08 07:46:09;;;;;;;17.13;8.80;;;7.30;99.90;;;8.23;100.00;100557.91;5029605;28;20229;-60
2021/11/08 07:48:40;;;;;;;24.07;9.17;;;7.50;99.90;;;8.47;100.00;100560.19;5028273;28;20204;-60
2021/11/08 07:51:09;;;;;;;111.83;28.97;;;7.60;99.90;;;8.59;100.00;100566.69;5029785;28;20273;-60
2021/11/08 07:53:38;;;;;;;35.50;11.33;;;7.70;99.90;;;8.73;100.00;100570.28;5029880;28;20574;-61
2021/11/08 07:56:07;;;;;;;13.40;5.93;;;7.80;99.90;;;8.77;100.00;100568.84;5029158;28;20640;-61
2021/11/08 07:58:36;;;;;;;13.60;5.70;;;7.80;99.90;;;9.05;100.00;100585.75;5029831;28;20273;-60
2021/11/08 08:01:06;;;;;;;15.03;5.37;;;7.90;99.90;;;9.15;100.00;100578.16;5029082;28;20224;-61
2021/11/08 08:03:35;;;;;;;12.57;5.57;;;8.00;99.90;;;9.21;100.00;100574.66;5030161;28;20210;-60
2021/11/08 08:06:06;;;;;;;10.60;4.50;;;8.10;99.90;;;9.18;100.00;100583.13;5032272;28;20296;-61
2021/11/08 08:08:36;;;;;;;10.60;4.80;;;8.20;99.90;;;9.47;100.00;100574.75;5032192;28;20206;-60
2021/11/08 08:11:06;;;;;;;12.23;5.07;;;8.30;99.90;;;9.40;100.00;100574.72;5032208;28;20186;-60
2021/11/08 08:13:37;;;;;;;10.53;4.70;;;8.30;99.90;;;9.45;100.00;100574.13;5032608;28;20187;-60
2021/11/08 08:16:14;;;;;;;16.63;5.37;;;8.30;99.90;;;9.52;100.00;100575.78;5032503;28;20186;-62
2021/11/08 08:18:45;;;;;;;11.17;4.80;;;8.40;99.90;;;9.81;100.00;100575.44;5032545;28;20240;-62
2021/11/08 08:21:15;;;;;;;10.13;4.53;;;8.60;99.90;;;9.88;100.00;100582.72;5032146;28;20206;-61
2021/11/08 08:23:54;;;;;;;8.97;4.67;;;8.70;99.90;;;9.92;100.00;100597.41;5032125;28;20618;-61
2021/11/08 08:26:25;;;;;;;13.67;5.27;;;8.70;99.90;;;10.01;100.00;100594.34;5032136;28;20634;-61
2021/11/08 08:28:54;;;;;;;12.63;5.07;;;8.90;99.90;;;10.10;100.00;100584.22;5031809;28;20225;-60
2021/11/08 08:31:23;;;;;;;11.43;5.00;;;8.90;99.90;;;10.11;100.00;100589.41;5032238;28;20677;-60
2021/11/08 08:33:52;;;;;;;12.87;5.13;;;9.00;99.90;;;10.08;100.00;100595.19;5032277;28;20284;-60
2021/11/08 08:36:20;;;;;;;10.90;5.10;;;8.90;99.90;;;10.17;100.00;100591.25;5032388;28;20577;-60
2021/11/08 08:38:50;;;;;;;9.77;5.77;;;9.10;99.90;;;10.24;100.00;100596.66;5032304;28;20194;-62
2021/11/08 08:41:19;;;;;;;12.07;5.17;;;9.10;99.90;;;10.35;100.00;100593.34;5032083;28;20589;-60
2021/11/08 08:43:47;;;;;;;11.13;5.60;;;9.10;99.90;;;10.45;100.00;100599.16;5032181;28;20206;-60
2021/11/08 08:46:15;;;;;;;14.47;5.37;;;9.30;99.90;;;10.61;100.00;100604.09;5032425;28;20202;-61
2021/11/08 08:48:44;;;;;;;14.27;5.40;;;9.30;99.90;;;10.47;100.00;100605.16;5032245;28;20305;-60
2021/11/08 08:51:14;;;;;;;13.53;6.33;;;9.30;99.90;;;10.38;100.00;100607.22;5032296;28;20216;-60
2021/11/08 08:53:42;;;;;;;8.83;5.27;;;9.20;99.90;;;10.16;100.00;100608.47;5031891;28;20237;-61
2021/11/08 08:56:23;;;;;;;11.63;5.03;;;9.20;99.90;;;9.93;100.00;100609.84;5031954;28;20194;-60
2021/11/08 08:58:53;;;;;;;12.03;5.63;;;9.10;99.90;;;9.94;100.00;100612.34;5032210;28;20281;-60
2021/11/08 09:01:24;;;;;;;15.07;6.90;;;9.00;99.90;;;9.82;100.00;100609.41;5032281;28;20248;-60
2021/11/08 09:03:53;;;;;;;11.23;5.17;;;9.00;99.90;;;10.02;100.00;100605.91;5031722;28;20662;-60
2021/11/08 09:06:24;;;;;;;54.03;16.07;;;9.10;99.90;;;10.26;100.00;100616.13;5032966;28;20202;-62
2021/11/08 09:08:54;;;;;;;11.20;5.43;;;9.20;99.90;;;10.53;100.00;100615.94;5032127;28;20269;-60
2021/11/08 09:11:24;;;;;;;14.27;5.20;;;9.30;99.90;;;10.53;100.00;100613.25;5032321;28;20297;-60
2021/11/08 09:13:53;;;;;;;17.23;5.80;;;9.40;99.90;;;10.65;100.00;100619.66;5035277;28;20653;-60
2021/11/08 09:16:22;;;;;;;9.17;4.63;;;9.50;99.90;;;10.70;100.00;100621.72;5035666;28;20309;-60
2021/11/08 09:18:53;;;;;;;11.13;4.20;;;9.50;99.90;;;10.53;100.00;100628.56;5035291;28;20688;-60
2021/11/08 09:21:29;;;;;;;11.87;4.60;;;9.60;99.90;;;10.40;100.00;100628.56;5035553;28;20209;-60
2021/11/08 09:24:02;;;;;;;13.47;4.80;;;9.50;99.90;;;10.62;100.00;100619.25;5035354;28;20225;-60
2021/11/08 09:26:33;;;;;;;11.53;5.00;;;9.60;99.90;;;10.58;100.00;100628.75;5035103;28;20189;-60
2021/11/08 09:29:02;;;;;;;10.83;5.00;;;9.50;99.90;;;10.49;100.00;100635.38;5035302;28;20409;-61
2021/11/08 09:31:30;;;;;;;12.53;5.17;;;9.50;99.90;;;10.44;100.00;100641.41;5035159;28;20302;-60
2021/11/08 09:34:03;;;;;;;13.00;5.13;;;9.50;99.90;;;10.39;100.00;100643.06;5035134;28;20669;-60
2021/11/08 09:36:35;;;;;;;10.13;5.40;;;9.40;99.90;;;10.52;100.00;100646.56;5035157;28;20222;-60
2021/11/08 09:39:09;;;;;;;14.90;5.93;;;9.50;99.90;;;10.54;100.00;100649.91;5035043;28;20186;-61
2021/11/08 09:41:39;;;;;;;20.00;8.67;;;9.60;99.90;;;10.62;100.00;100652.38;5034848;28;20206;-60
2021/11/08 09:44:09;;;;;;;13.20;5.80;;;9.60;99.90;;;10.77;100.00;100657.56;5034901;28;20673;-61
2021/11/08 09:46:37;;;;;;;14.87;5.63;;;9.70;99.90;;;10.49;100.00;100655.09;5035065;28;20241;-61
2021/11/08 09:49:09;;;;;;;14.67;5.83;;;9.60;99.90;;;10.79;100.00;100659.00;5034728;28;20206;-60
2021/11/08 09:51:42;;;;;;;10.80;5.80;;;9.60;99.90;;;10.96;100.00;100656.69;5034768;28;20701;-60
2021/11/08 09:54:11;;;;;;;11.97;4.97;;;9.80;99.90;;;11.26;100.00;100659.75;5034820;28;20193;-60
2021/11/08 09:56:41;;;;;;;11.87;4.90;;;10.00;99.90;;;11.28;100.00;100663.06;5034277;28;20321;-60
2021/11/08 09:59:10;;;;;;;10.67;4.60;;;10.10;99.90;;;11.39;100.00;100657.84;5034839;28;20186;-61
2021/11/08 10:01:50;;;;;;;10.17;4.63;;;10.20;99.90;;;11.55;100.00;100660.06;5034451;28;20304;-61
2021/11/08 10:04:18;;;;;;;10.23;4.77;;;10.30;99.90;;;11.55;100.00;100657.38;5034466;28;20540;-59
2021/11/08 10:06:50;;;;;;;14.50;4.97;;;10.30;99.90;;;11.68;100.00;100662.75;5034764;28;20313;-60
2021/11/08 10:09:20;;;;;;;11.37;4.47;;;10.40;99.90;;;11.63;100.00;100676.03;5034529;28;20240;-59
2021/11/08 10:11:51;;;;;;;9.20;4.30;;;10.40;99.90;;;11.62;100.00;100677.06;5031288;28;20571;-60
2021/11/08 10:14:20;;;;;;;14.47;4.97;;;10.50;99.90;;;11.55;100.00;100665.47;5034596;28;20229;-61
2021/11/08 10:16:51;;;;;;;9.97;3.70;;;10.50;99.90;;;11.71;100.00;100662.31;5033199;28;20262;-59
2021/11/08 10:19:22;;;;;;;11.50;3.77;;;10.50;99.90;;;11.62;100.00;100668.97;5031270;28;20198;-59
2021/11/08 10:21:55;;;;;;;9.40;3.80;;;10.50;99.90;;;11.85;100.00;100660.38;5031482;28;20211;-58
2021/11/08 10:24:27;;;;;;;11.23;3.67;;;10.50;99.90;;;11.92;100.00;100658.50;5031193;28;20183;-58
2021/11/08 10:27:00;;;;;;;9.43;3.20;;;10.60;99.90;;;11.89;100.00;100658.94;5031190;28;20697;-59
2021/11/08 10:29:30;;;;;;;9.90;4.03;;;10.70;99.90;;;11.85;100.00;100669.31;5031055;28;20186;-58
2021/11/08 10:32:10;;;;;;;10.20;3.40;;;10.70;99.90;;;12.25;100.00;100659.09;5031211;28;20290;-57
2021/11/08 10:34:50;;;;;;;9.87;3.30;;;10.80;99.90;;;12.13;100.00;100667.09;5031202;28;20237;-59
2021/11/08 10:37:26;;;;;;;5.60;2.70;;;10.80;99.90;;;12.17;100.00;100659.38;5030970;28;20225;-58
2021/11/08 10:39:57;;;;;;;8.17;3.37;;;10.90;99.90;;;11.86;100.00;100662.88;5030841;28;20256;-62
2021/11/08 10:42:29;;;;;;;10.93;3.23;;;10.80;99.90;;;11.81;100.00;100662.69;5030970;28;20579;-61
2021/11/08 10:44:59;;;;;;;7.50;3.10;;;10.70;99.90;;;11.88;100.00;100659.94;5031058;28;20301;-61
2021/11/08 10:47:28;;;;;;;10.87;2.97;;;10.70;99.90;;;11.82;100.00;100664.34;5030913;28;20202;-60
2021/11/08 10:49:58;;;;;;;13.63;3.20;;;10.70;99.90;;;11.85;100.00;100660.38;5030604;28;20716;-70
2021/11/08 10:52:31;;;;;;;24.70;7.77;;;10.70;99.90;;;11.74;100.00;100669.16;5030675;28;20226;-69
2021/11/08 10:55:01;;;;;;;10.90;3.30;;;10.70;99.90;;;12.10;100.00;100658.59;5030651;28;20186;-69
2021/11/08 10:57:31;;;;;;;15.20;4.13;;;10.80;99.90;;;11.92;100.00;100670.09;5010778;28;20332;-68
2021/11/08 11:00:00;;;;;;;7.40;3.20;;;10.80;99.90;;;11.87;100.00;100666.41;5010961;28;20253;-67
2021/11/08 11:02:32;;;;;;;5.83;2.90;;;10.70;99.90;;;11.92;100.00;100664.69;5010865;28;20222;-59
2021/11/08 11:05:04;;;;;;;9.27;3.80;;;10.70;99.90;;;11.90;100.00;100669.50;5010999;28;20218;-59
2021/11/08 11:07:38;;;;;;;13.23;5.57;;;10.80;99.90;;;11.77;100.00;100664.16;5010905;28;20678;-61
2021/11/08 11:10:10;;;;;;;9.77;3.93;;;10.70;99.90;;;12.05;100.00;100663.81;5011275;28;20230;-58
2021/11/08 11:12:43;;;;;;;8.67;3.57;;;10.80;99.90;;;11.98;100.00;100673.81;5011213;28;20624;-61
2021/11/08 11:15:14;;;;;;;16.57;5.70;;;10.80;99.90;;;11.94;100.00;100678.81;5010439;28;20290;-61
2021/11/08 11:17:47;;;;;;;14.40;4.70;;;10.80;99.90;;;12.01;100.00;100684.19;5010394;28;20197;-64
2021/11/08 11:20:20;;;;;;;6.50;2.87;;;10.80;99.90;;;12.20;100.00;100675.97;5010550;28;20195;-60
2021/11/08 11:23:03;;;;;;;7.90;2.87;;;10.90;99.90;;;12.24;100.00;100679.88;5009962;28;20213;-60
2021/11/08 11:25:36;;;;;;;9.80;3.33;;;11.00;99.90;;;11.99;100.00;100681.69;5009625;28;20734;-60
2021/11/08 11:28:06;;;;;;;7.97;2.73;;;10.90;99.90;;;12.02;100.00;100686.66;5010185;28;20256;-60
2021/11/08 11:30:37;;;;;;;7.70;2.80;;;10.90;99.90;;;11.91;100.00;100686.50;5009936;28;20187;-62
2021/11/08 11:33:11;;;;;;;7.50;3.53;;;10.80;99.90;;;11.73;100.00;100687.22;5009799;28;20187;-62
2021/11/08 11:35:45;;;;;;;7.23;2.90;;;10.70;99.90;;;11.93;100.00;100677.16;5009399;28;20277;-60
2021/11/08 11:38:21;;;;;;;10.43;3.97;;;10.80;99.90;;;11.84;100.00;100683.84;5010239;28;20277;-59
2021/11/08 11:40:57;;;;;;;6.80;2.87;;;10.80;99.90;;;11.98;100.00;100676.50;5010002;28;20290;-59
2021/11/08 11:43:31;;;;;;;8.13;2.40;;;10.90;99.90;;;11.80;100.00;100674.53;5009598;28;20562;-59
2021/11/08 11:46:00;;;;;;;9.50;3.10;;;10.70;99.90;;;12.14;100.00;100681.41;5009430;28;20286;-61
2021/11/08 11:48:32;;;;;;;16.50;4.13;;;10.70;99.90;;;12.00;100.00;100683.38;5009872;28;20213;-60
2021/11/08 11:51:12;;;;;;;16.33;5.27;;;10.80;99.90;;;12.06;100.00;100689.75;5009677;28;20264;-58